Time;durP1;ratioP1;P1;durP2;ratioP2;P2;SDS_P1;SDS_P2;PMS_P1;PMS_P2;Temp;Humidity;BMP_temperature;BMP_pressure;BME280_temperature;BME280_humidity;BME280_pressure;Samples;Min_cycle;Max_cycle;Signal;HPM_P1;HPM_P2
2023/03/18 00:00:35;;;;;;;24.45;14.68;;;;;;;5.60;58.53;99484.13;5031761;28;20136;-75
2023/03/18 00:03:00;;;;;;;21.55;11.93;;;;;;;5.50;58.19;99480.97;5031818;28;20036;-75
2023/03/18 00:05:25;;;;;;;27.13;10.90;;;;;;;5.35;57.88;99439.22;5032083;28;20033;-75
2023/03/18 00:07:51;;;;;;;23.10;11.50;;;;;;;5.46;57.63;99453.53;5031642;28;20396;-75
2023/03/18 00:10:17;;;;;;;18.67;10.90;;;;;;;5.60;57.44;99475.53;5031669;28;20033;-75
2023/03/18 00:12:43;;;;;;;18.92;11.23;;;;;;;5.49;57.26;99452.59;5031900;28;20087;-74
2023/03/18 00:15:11;;;;;;;23.85;12.48;;;;;;;5.61;57.06;99465.16;5035750;28;20035;-74
2023/03/18 00:17:38;;;;;;;20.35;11.95;;;;;;;5.70;56.70;99458.88;5035197;28;20045;-75
2023/03/18 00:20:05;;;;;;;19.05;10.80;;;;;;;5.68;56.99;99450.31;5035714;28;20117;-75
2023/03/18 00:22:36;;;;;;;19.55;11.13;;;;;;;5.78;56.97;99462.09;5035279;28;20029;-75
2023/03/18 00:25:03;;;;;;;15.65;10.23;;;;;;;5.71;57.07;99463.16;5035352;28;20018;-75
2023/03/18 00:27:29;;;;;;;22.10;11.05;;;;;;;5.65;57.13;99460.75;5035451;28;20033;-75
2023/03/18 00:29:55;;;;;;;16.92;10.45;;;;;;;5.53;57.36;99438.72;5035188;28;20029;-74
2023/03/18 00:32:21;;;;;;;21.20;10.60;;;;;;;5.63;57.60;99460.78;5035367;28;20037;-75
2023/03/18 00:34:47;;;;;;;22.83;11.45;;;;;;;5.65;57.58;99471.09;5035052;28;20037;-75
2023/03/18 00:37:17;;;;;;;21.83;11.27;;;;;;;5.49;57.38;99437.09;5035201;28;20034;-75
2023/03/18 00:39:45;;;;;;;26.55;14.30;;;;;;;5.49;57.78;99450.03;5034857;28;20568;-74
2023/03/18 00:42:11;;;;;;;23.83;13.70;;;;;;;5.35;57.88;99437.50;5035165;28;20489;-75
2023/03/18 00:44:37;;;;;;;24.45;12.93;;;;;;;5.39;58.44;99453.75;5035025;28;20029;-75
2023/03/18 00:47:03;;;;;;;22.15;13.63;;;;;;;5.40;58.71;99468.38;5035111;28;20061;-75
2023/03/18 00:49:28;;;;;;;22.70;12.05;;;;;;;5.34;59.14;99468.53;5034993;28;20049;-75
2023/03/18 00:51:54;;;;;;;21.63;12.77;;;;;;;5.21;59.47;99465.44;5034700;28;20498;-75
2023/03/18 00:54:19;;;;;;;22.35;12.13;;;;;;;5.16;59.72;99464.72;5034806;28;20079;-75
2023/03/18 00:56:45;;;;;;;21.20;12.57;;;;;;;5.00;59.82;99444.50;5034792;28;20350;-75
2023/03/18 00:59:12;;;;;;;26.27;13.52;;;;;;;5.02;60.20;99466.84;5034915;28;20057;-75
2023/03/18 01:01:37;;;;;;;24.42;13.90;;;;;;;4.98;60.22;99471.25;5034566;28;20025;-75
2023/03/18 01:04:03;;;;;;;23.77;13.38;;;;;;;4.81;60.61;99434.72;5034845;28;20523;-75
2023/03/18 01:06:31;;;;;;;20.75;11.93;;;;;;;4.93;60.57;99480.81;5034814;28;20030;-75
2023/03/18 01:08:57;;;;;;;24.98;13.60;;;;;;;4.76;60.64;99455.44;5034421;28;20146;-75
2023/03/18 01:11:23;;;;;;;23.33;12.48;;;;;;;4.89;60.28;99476.66;5034798;28;20521;-75
2023/03/18 01:13:49;;;;;;;24.17;12.23;;;;;;;4.91;60.64;99477.44;5034409;28;20095;-75
2023/03/18 01:16:15;;;;;;;21.83;11.40;;;;;;;4.73;60.29;99452.97;5034356;28;20042;-75
2023/03/18 01:18:41;;;;;;;23.13;11.27;;;;;;;4.85;60.63;99475.88;5034273;28;20068;-75
2023/03/18 01:21:09;;;;;;;23.73;12.23;;;;;;;4.86;60.76;99479.31;5034361;28;20075;-75
2023/03/18 01:23:35;;;;;;;22.05;12.57;;;;;;;4.85;60.68;99475.88;5034075;28;20029;-75
2023/03/18 01:26:01;;;;;;;19.92;13.10;;;;;;;4.80;60.90;99463.97;5033360;28;20033;-75
2023/03/18 01:28:27;;;;;;;20.88;12.15;;;;;;;4.69;61.17;99441.03;5034351;28;20092;-75
2023/03/18 01:30:54;;;;;;;19.60;11.95;;;;;;;4.71;61.52;99463.31;5034040;28;20025;-75
2023/03/18 01:33:19;;;;;;;19.83;11.20;;;;;;;4.50;61.25;99438.91;5034220;28;20033;-75
2023/03/18 01:35:48;;;;;;;20.08;12.05;;;;;;;4.52;61.53;99446.63;5033903;28;20048;-75
2023/03/18 01:38:14;;;;;;;23.40;14.35;;;;;;;4.69;61.53;99465.09;5034039;28;20033;-75
2023/03/18 01:40:39;;;;;;;24.65;11.73;;;;;;;4.50;61.81;99450.97;5033974;28;20025;-75
2023/03/18 01:43:12;;;;;;;23.98;11.52;;;;;;;4.56;61.72;99470.63;5033856;28;20108;-74
2023/03/18 01:45:38;;;;;;;19.90;11.68;;;;;;;4.54;61.82;99462.06;5033980;28;20061;-75
2023/03/18 01:48:04;;;;;;;20.05;12.60;;;;;;;4.22;61.98;99415.56;5033805;28;20061;-74
2023/03/18 01:50:36;;;;;;;21.35;11.52;;;;;;;4.18;62.13;99421.69;5033762;28;20469;-75
2023/03/18 01:53:08;;;;;;;23.77;12.10;;;;;;;4.39;62.08;99464.16;5033758;28;20025;-74
2023/03/18 01:55:36;;;;;;;25.05;11.95;;;;;;;4.14;61.90;99417.50;5033836;28;20025;-74
2023/03/18 01:58:06;;;;;;;22.27;12.35;;;;;;;4.34;61.90;99454.81;5033526;28;20091;-74
2023/03/18 02:00:37;;;;;;;23.42;13.05;;;;;;;4.46;61.93;99464.81;5033653;28;20026;-74
2023/03/18 02:03:03;;;;;;;19.47;12.23;;;;;;;4.33;62.09;99443.66;5033203;28;20029;-74
2023/03/18 02:05:29;;;;;;;22.05;11.35;;;;;;;4.24;62.14;99434.41;5033755;28;20264;-74
2023/03/18 02:07:54;;;;;;;19.70;12.10;;;;;;;4.28;62.09;99435.19;5033418;28;20140;-74
2023/03/18 02:10:27;;;;;;;24.05;11.25;;;;;;;4.36;62.45;99460.78;5033371;28;20025;-74
2023/03/18 02:13:08;;;;;;;19.85;12.32;;;;;;;4.35;62.69;99465.09;5033226;28;20033;-74
2023/03/18 02:15:37;;;;;;;22.40;12.37;;;;;;;4.34;62.86;99466.00;5033278;28;20033;-74
2023/03/18 02:18:08;;;;;;;20.38;11.60;;;;;;;4.18;62.90;99454.34;5033312;28;20132;-74
2023/03/18 02:20:59;;;;;;;20.00;11.60;;;;;;;4.14;63.00;99445.00;5033533;28;20037;-74
2023/03/18 02:23:36;;;;;;;20.80;11.65;;;;;;;4.30;63.14;99476.38;5031827;28;20025;-74
2023/03/18 02:26:19;;;;;;;20.05;11.35;;;;;;;4.31;62.97;99473.78;5032921;28;20057;-74
2023/03/18 02:28:48;;;;;;;17.23;9.93;;;;;;;4.33;63.18;99477.16;5032876;28;20389;-74
2023/03/18 02:31:15;;;;;;;20.90;11.10;;;;;;;4.36;62.77;99471.09;5032954;28;20022;-74
2023/03/18 02:33:42;;;;;;;19.38;10.25;;;;;;;4.25;62.72;99448.97;5033030;28;20022;-74
2023/03/18 02:36:13;;;;;;;19.70;10.57;;;;;;;4.37;62.64;99465.06;5032870;28;20022;-74
2023/03/18 02:38:43;;;;;;;23.15;11.63;;;;;;;4.38;62.79;99477.94;5032787;28;20033;-74
2023/03/18 02:41:17;;;;;;;19.92;10.68;;;;;;;4.11;62.57;99411.56;5032951;28;20034;-74
2023/03/18 02:43:43;;;;;;;17.33;9.48;;;;;;;4.38;62.36;99456.44;5032631;28;20385;-74
2023/03/18 02:46:17;;;;;;;19.95;10.93;;;;;;;4.42;62.43;99460.63;5032874;28;20033;-74
2023/03/18 02:48:44;;;;;;;15.27;9.65;;;;;;;4.27;62.55;99433.50;5032477;28;20040;-74
2023/03/18 02:51:13;;;;;;;20.58;10.48;;;;;;;4.37;62.37;99431.53;5032580;28;20037;-74
2023/03/18 02:53:39;;;;;;;17.15;10.23;;;;;;;4.40;62.13;99442.63;5032785;28;20404;-74
2023/03/18 02:56:05;;;;;;;18.73;10.30;;;;;;;4.39;62.37;99437.50;5032332;28;20017;-74
2023/03/18 02:58:31;;;;;;;18.20;11.23;;;;;;;4.36;61.89;99435.84;5032650;28;20033;-74
2023/03/18 03:00:57;;;;;;;16.63;10.07;;;;;;;4.45;62.27;99440.78;5032620;28;20037;-74
2023/03/18 03:03:24;;;;;;;17.90;9.60;;;;;;;4.53;62.10;99460.38;5032358;28;20358;-74
2023/03/18 03:05:49;;;;;;;16.67;10.00;;;;;;;4.40;62.17;99439.19;5032107;28;20022;-74
2023/03/18 03:08:15;;;;;;;17.80;9.98;;;;;;;4.47;62.22;99446.75;5032573;28;20479;-74
2023/03/18 03:10:41;;;;;;;16.52;9.25;;;;;;;4.55;62.22;99458.59;5032478;28;20591;-74
2023/03/18 03:13:08;;;;;;;18.02;9.95;;;;;;;4.53;62.24;99450.06;5032199;28;20043;-74
2023/03/18 03:15:35;;;;;;;18.83;10.95;;;;;;;4.44;62.09;99438.25;5032381;28;20022;-74
2023/03/18 03:18:01;;;;;;;15.18;9.48;;;;;;;4.42;62.18;99440.00;5029111;28;20057;-74
2023/03/18 03:20:27;;;;;;;18.48;9.70;;;;;;;4.62;62.29;99458.41;5029685;28;20034;-74
2023/03/18 03:22:52;;;;;;;17.00;9.85;;;;;;;4.42;62.25;99425.38;5029306;28;20037;-74
2023/03/18 03:25:18;;;;;;;14.77;8.85;;;;;;;4.58;62.26;99463.69;5029732;28;20029;-74
2023/03/18 03:27:43;;;;;;;16.38;9.63;;;;;;;4.67;62.21;99453.97;5029749;28;20041;-74
2023/03/18 03:30:11;;;;;;;17.88;9.07;;;;;;;4.60;61.96;99449.88;5029543;28;20032;-74
2023/03/18 03:32:37;;;;;;;13.75;8.68;;;;;;;4.40;62.22;99441.78;5029630;28;20106;-74
2023/03/18 03:35:04;;;;;;;13.63;9.60;;;;;;;4.39;62.02;99447.81;5029420;28;20033;-74
2023/03/18 03:37:29;;;;;;;17.05;9.50;;;;;;;4.52;62.55;99471.59;5029552;28;20041;-74
2023/03/18 03:39:54;;;;;;;16.25;8.48;;;;;;;4.38;62.49;99459.00;5029598;28;20064;-74
2023/03/18 03:42:20;;;;;;;17.00;9.00;;;;;;;4.30;62.36;99448.91;5036207;28;20504;-74
2023/03/18 03:44:46;;;;;;;17.35;8.82;;;;;;;4.36;62.89;99461.63;5049386;28;20132;-74
2023/03/18 03:47:11;;;;;;;16.13;8.52;;;;;;;4.22;62.82;99443.09;5049718;28;20069;-74
2023/03/18 03:49:37;;;;;;;18.77;8.98;;;;;;;4.40;62.82;99463.25;5057566;28;20061;-74
2023/03/18 03:52:03;;;;;;;16.85;9.15;;;;;;;4.41;62.79;99471.81;5058319;28;20033;-74
2023/03/18 03:54:29;;;;;;;17.13;8.75;;;;;;;4.39;62.70;99442.66;5058497;28;20029;-74
2023/03/18 03:56:54;;;;;;;16.48;9.18;;;;;;;4.45;62.53;99461.41;5058212;28;20089;-74
2023/03/18 03:59:20;;;;;;;13.50;9.10;;;;;;;4.42;62.61;99465.78;5058341;28;20423;-74
2023/03/18 04:01:45;;;;;;;14.10;8.90;;;;;;;4.42;62.56;99471.78;5058177;28;20636;-74
2023/03/18 04:04:12;;;;;;;17.17;9.25;;;;;;;4.45;62.70;99469.13;5058270;28;20696;-74
2023/03/18 04:06:37;;;;;;;20.77;10.95;;;;;;;4.23;62.80;99419.84;5058379;28;20026;-74
2023/03/18 04:09:03;;;;;;;16.48;8.82;;;;;;;4.50;62.62;99477.59;5058162;28;20376;-74
2023/03/18 04:11:29;;;;;;;14.90;9.05;;;;;;;4.18;62.86;99431.16;5058342;28;20520;-74
2023/03/18 04:13:54;;;;;;;12.82;8.35;;;;;;;4.28;62.55;99439.50;5058036;28;20029;-74
2023/03/18 04:16:20;;;;;;;16.25;8.85;;;;;;;4.46;62.61;99475.13;5058323;28;20048;-74
2023/03/18 04:18:45;;;;;;;13.48;7.97;;;;;;;4.55;62.50;99482.66;5058177;28;20025;-74
2023/03/18 04:21:11;;;;;;;14.55;9.23;;;;;;;4.72;62.60;99490.84;5058109;28;20074;-74
2023/03/18 04:23:36;;;;;;;13.25;8.52;;;;;;;4.62;62.35;99489.34;5058124;28;20047;-74
2023/03/18 04:26:04;;;;;;;20.77;9.15;;;;;;;4.48;62.36;99465.66;5057993;28;20032;-74
2023/03/18 04:28:30;;;;;;;20.52;9.57;;;;;;;4.54;62.51;99468.06;5058083;28;20025;-74
2023/03/18 04:30:55;;;;;;;15.43;9.48;;;;;;;4.67;62.50;99487.50;5057825;28;20033;-74
2023/03/18 04:33:20;;;;;;;13.95;8.10;;;;;;;4.43;62.40;99462.34;5058498;28;20072;-74
2023/03/18 04:35:48;;;;;;;13.15;7.63;;;;;;;4.47;62.84;99482.00;5058139;28;20044;-74
2023/03/18 04:38:13;;;;;;;15.57;7.63;;;;;;;4.38;63.32;99465.03;5057958;28;20534;-74
2023/03/18 04:40:39;;;;;;;14.85;8.73;;;;;;;4.41;63.22;99471.81;5058080;28;20103;-74
2023/03/18 04:43:05;;;;;;;18.48;8.07;;;;;;;4.39;63.54;99471.88;5057785;28;20021;-74
2023/03/18 04:45:30;;;;;;;14.52;6.85;;;;;;;4.37;63.29;99476.22;5058015;28;20028;-75
2023/03/18 04:47:55;;;;;;;15.50;8.80;;;;;;;4.36;63.28;99466.78;5057829;28;20499;-74
2023/03/18 04:50:21;;;;;;;16.15;8.25;;;;;;;4.31;63.01;99450.59;5058175;28;20060;-74
2023/03/18 04:52:47;;;;;;;15.85;7.93;;;;;;;4.43;63.06;99482.97;5057872;28;20043;-75
2023/03/18 04:55:16;;;;;;;14.02;7.72;;;;;;;4.41;62.99;99471.81;5057763;28;20025;-74
2023/03/18 04:57:43;;;;;;;14.07;7.43;;;;;;;4.40;62.90;99478.72;5057862;28;20480;-74
2023/03/18 05:00:11;;;;;;;14.20;7.60;;;;;;;4.45;62.93;99474.28;5054122;28;20077;-74
2023/03/18 05:02:38;;;;;;;11.60;6.97;;;;;;;4.31;62.77;99467.78;5054715;28;20028;-74
2023/03/18 05:05:04;;;;;;;13.43;7.50;;;;;;;4.44;62.68;99490.66;5054528;28;20487;-74
2023/03/18 05:07:30;;;;;;;11.18;7.55;;;;;;;4.49;63.07;99487.97;5054668;28;20025;-74
2023/03/18 05:09:56;;;;;;;13.48;8.20;;;;;;;4.57;62.62;99490.38;5054373;28;20040;-74
2023/03/18 05:12:21;;;;;;;13.65;7.68;;;;;;;4.38;62.58;99462.47;5054453;28;20024;-75
2023/03/18 05:14:46;;;;;;;12.57;7.88;;;;;;;4.48;62.61;99460.50;5054304;28;20029;-74
2023/03/18 05:17:16;;;;;;;14.65;8.63;;;;;;;4.70;62.86;99473.69;5052903;28;20049;-74
2023/03/18 05:19:46;;;;;;;18.33;8.18;;;;;;;4.61;62.25;99461.03;5054500;28;20124;-75
2023/03/18 05:22:12;;;;;;;10.65;7.03;;;;;;;4.60;62.49;99461.91;5053960;28;20107;-74
2023/03/18 05:24:39;;;;;;;18.20;8.77;;;;;;;4.65;62.43;99470.38;5054212;28;20033;-74
2023/03/18 05:27:05;;;;;;;14.43;7.88;;;;;;;4.55;62.43;99459.47;5053921;28;20104;-75
2023/03/18 05:29:30;;;;;;;13.77;8.82;;;;;;;4.60;62.34;99462.75;5054078;28;20103;-74
2023/03/18 05:31:55;;;;;;;11.75;8.02;;;;;;;4.67;62.21;99476.34;5054328;28;20032;-74
2023/03/18 05:34:21;;;;;;;15.57;8.60;;;;;;;4.79;62.21;99485.50;5054157;28;20116;-74
2023/03/18 05:36:47;;;;;;;15.82;9.50;;;;;;;4.78;62.01;99487.25;5053948;28;20037;-74
2023/03/18 05:39:12;;;;;;;16.20;8.70;;;;;;;4.68;62.31;99485.78;5053805;28;20068;-74
2023/03/18 05:41:37;;;;;;;14.13;8.27;;;;;;;4.82;62.07;99498.34;5053845;28;20480;-74
2023/03/18 05:44:03;;;;;;;15.40;9.00;;;;;;;4.75;62.06;99472.66;5053621;28;20075;-74
2023/03/18 05:46:28;;;;;;;16.50;9.60;;;;;;;4.79;62.12;99475.19;5053819;28;20404;-74
2023/03/18 05:48:53;;;;;;;13.88;9.15;;;;;;;5.02;61.76;99497.81;5053900;28;20021;-74
2023/03/18 05:51:19;;;;;;;13.02;8.23;;;;;;;4.92;61.48;99476.56;5053792;28;20029;-74
2023/03/18 05:53:45;;;;;;;11.30;7.35;;;;;;;5.09;61.35;99466.63;5053771;28;20426;-74
2023/03/18 05:56:11;;;;;;;12.70;8.02;;;;;;;5.25;61.09;99467.91;5053461;28;20029;-74
2023/03/18 05:58:37;;;;;;;13.32;7.82;;;;;;;5.54;61.15;99496.38;5053578;28;20495;-74
2023/03/18 06:01:02;;;;;;;10.65;7.72;;;;;;;5.70;60.51;99495.91;5053601;28;20025;-74
2023/03/18 06:03:28;;;;;;;13.75;8.77;;;;;;;5.73;60.25;99476.84;5053538;28;20492;-74
2023/03/18 06:05:54;;;;;;;12.65;8.60;;;;;;;5.83;59.80;99493.78;5053600;28;20485;-74
2023/03/18 06:08:19;;;;;;;15.15;8.73;;;;;;;5.83;59.73;99498.13;5053225;28;20040;-74
2023/03/18 06:10:45;;;;;;;15.60;7.82;;;;;;;5.76;59.81;99467.28;5053364;28;20025;-74
2023/03/18 06:13:11;;;;;;;11.93;8.32;;;;;;;5.71;59.83;99473.47;5053040;28;20029;-74
2023/03/18 06:15:37;;;;;;;14.65;9.13;;;;;;;5.99;59.86;99502.81;5053457;28;20133;-74
2023/03/18 06:18:03;;;;;;;17.88;8.77;;;;;;;5.90;59.32;99495.31;5053076;28;20492;-74
2023/03/18 06:20:29;;;;;;;18.73;8.82;;;;;;;5.99;59.32;99483.88;5053258;28;20500;-74
2023/03/18 06:22:55;;;;;;;14.82;8.98;;;;;;;6.20;59.36;99503.06;5053027;28;20119;-74
2023/03/18 06:25:22;;;;;;;14.52;8.15;;;;;;;5.99;59.19;99448.53;5052874;28;20532;-74
2023/03/18 06:27:47;;;;;;;15.48;9.00;;;;;;;6.34;58.89;99474.16;5052984;28;20032;-74
2023/03/18 06:30:14;;;;;;;15.05;8.73;;;;;;;6.57;58.49;99473.41;5053201;28;20099;-74
2023/03/18 06:32:40;;;;;;;15.85;8.15;;;;;;;6.83;57.57;99482.91;5053071;28;20028;-74
2023/03/18 06:35:06;;;;;;;13.38;8.52;;;;;;;7.38;57.14;99502.53;5052837;28;20029;-74
2023/03/18 06:37:31;;;;;;;11.60;7.93;;;;;;;7.72;55.95;99481.41;5052963;28;20671;-74
2023/03/18 06:39:57;;;;;;;12.38;8.18;;;;;;;7.81;55.42;99497.53;5053135;28;20112;-74
2023/03/18 06:42:22;;;;;;;15.27;7.18;;;;;;;7.86;55.73;99504.22;5052650;28;20477;-74
2023/03/18 06:44:50;;;;;;;12.18;7.38;;;;;;;7.74;55.87;99487.38;5052711;28;20025;-74
2023/03/18 06:47:17;;;;;;;10.20;7.38;;;;;;;7.83;55.29;99487.94;5052547;28;20031;-74
2023/03/18 06:49:43;;;;;;;13.02;6.70;;;;;;;7.62;55.34;99461.91;5052741;28;20033;-74
2023/03/18 06:52:08;;;;;;;13.65;8.18;;;;;;;7.71;55.18;99481.44;5052442;28;20108;-74
2023/03/18 06:54:34;;;;;;;11.48;7.32;;;;;;;7.80;55.36;99483.72;5052575;28;20024;-74
2023/03/18 06:57:00;;;;;;;12.32;8.15;;;;;;;7.96;55.30;99484.84;5052221;28;20021;-74
2023/03/18 06:59:26;;;;;;;11.77;6.35;;;;;;;8.26;54.84;99500.09;5052457;28;20053;-74
2023/03/18 07:01:51;;;;;;;14.85;7.22;;;;;;;8.49;54.56;99491.41;5052448;28;20021;-74
2023/03/18 07:04:17;;;;;;;10.90;7.40;;;;;;;8.78;54.41;99510.16;5052117;28;20028;-74
2023/03/18 07:06:42;;;;;;;13.68;7.38;;;;;;;8.88;54.07;99488.91;5052441;28;20021;-74
2023/03/18 07:09:09;;;;;;;11.63;7.00;;;;;;;9.01;53.66;99486.63;5052143;28;20028;-74
2023/03/18 07:11:35;;;;;;;13.00;7.07;;;;;;;9.23;52.98;99492.63;5052310;28;20039;-74
2023/03/18 07:14:00;;;;;;;8.95;6.47;;;;;;;9.62;52.46;99516.91;5052394;28;20111;-74
2023/03/18 07:16:26;;;;;;;12.10;7.15;;;;;;;9.83;52.76;99508.13;5052251;28;20056;-74
2023/03/18 07:18:52;;;;;;;16.42;7.90;;;;;;;10.04;52.22;99488.09;5052334;28;20029;-74
2023/03/18 07:21:18;;;;;;;12.27;7.20;;;;;;;10.67;51.41;99514.59;5051934;28;20087;-74
2023/03/18 07:23:43;;;;;;;15.05;9.32;;;;;;;11.18;50.08;99501.63;5051281;28;20028;-74
2023/03/18 07:26:09;;;;;;;18.05;8.60;;;;;;;11.48;49.58;99512.22;5051690;28;20056;-74
2023/03/18 07:28:35;;;;;;;12.35;7.00;;;;;;;11.41;49.42;99484.78;5052169;28;20052;-74
2023/03/18 07:31:00;;;;;;;16.52;7.35;;;;;;;11.59;49.19;99512.50;5052115;28;20025;-74
2023/03/18 07:33:25;;;;;;;16.83;10.38;;;;;;;12.01;48.45;99511.16;5052050;28;20064;-74
2023/03/18 07:35:51;;;;;;;15.60;7.95;;;;;;;12.16;47.42;99493.78;5051980;28;20036;-75
2023/03/18 07:38:17;;;;;;;23.25;14.02;;;;;;;12.57;47.02;99519.38;5051671;28;20044;-74
2023/03/18 07:40:42;;;;;;;17.80;10.52;;;;;;;12.52;46.52;99493.50;5051699;28;20033;-75
2023/03/18 07:43:08;;;;;;;14.10;8.38;;;;;;;12.44;45.90;99511.38;5051694;28;20029;-74
2023/03/18 07:45:33;;;;;;;11.65;8.75;;;;;;;12.54;46.15;99483.78;5051958;28;20051;-74
2023/03/18 07:47:59;;;;;;;13.85;10.18;;;;;;;13.20;45.46;99506.09;5051889;28;20354;-75
2023/03/18 07:50:24;;;;;;;14.18;8.68;;;;;;;13.21;44.32;99486.84;5051589;28;20098;-75
2023/03/18 07:52:49;;;;;;;12.93;9.70;;;;;;;13.66;43.98;99517.25;5051750;28;20033;-74
2023/03/18 07:55:15;;;;;;;17.85;8.98;;;;;;;14.31;43.05;99513.22;5051433;28;20036;-74
2023/03/18 07:57:41;;;;;;;17.77;9.43;;;;;;;14.47;42.51;99509.50;5052072;28;20029;-75
2023/03/18 08:00:09;;;;;;;14.18;8.65;;;;;;;14.57;42.22;99501.06;5051628;28;20036;-74
2023/03/18 08:02:35;;;;;;;14.07;8.02;;;;;;;14.25;42.25;99511.84;5051725;28;20029;-75
2023/03/18 08:05:00;;;;;;;16.48;10.10;;;;;;;13.95;42.65;99507.59;5051881;28;20033;-75
2023/03/18 08:07:26;;;;;;;13.50;8.27;;;;;;;13.56;43.19;99510.06;5051457;28;20033;-75
2023/03/18 08:09:51;;;;;;;16.52;9.85;;;;;;;13.53;43.60;99533.81;5051530;28;20033;-75
2023/03/18 08:12:17;;;;;;;16.98;10.30;;;;;;;13.22;43.86;99535.59;5051409;28;20079;-75
2023/03/18 08:14:42;;;;;;;14.43;9.02;;;;;;;13.12;43.67;99513.53;5051722;28;20024;-75
2023/03/18 08:17:08;;;;;;;13.02;8.82;;;;;;;13.05;44.28;99507.81;5051190;28;20072;-75
2023/03/18 08:19:34;;;;;;;14.90;9.27;;;;;;;13.35;44.02;99540.97;5051539;28;20044;-75
2023/03/18 08:22:00;;;;;;;17.00;10.30;;;;;;;13.29;44.16;99528.28;5051452;28;20025;-75
2023/03/18 08:24:25;;;;;;;13.70;7.97;;;;;;;13.33;43.82;99541.06;5051342;28;20025;-75
2023/03/18 08:26:50;;;;;;;13.93;8.25;;;;;;;13.41;43.93;99523.13;5051728;28;20025;-75
2023/03/18 08:29:16;;;;;;;11.32;7.50;;;;;;;13.13;43.59;99497.75;5051436;28;20055;-75
2023/03/18 08:31:41;;;;;;;11.18;7.38;;;;;;;13.13;43.77;99526.53;5051317;28;20044;-75
2023/03/18 08:34:07;;;;;;;16.27;10.10;;;;;;;13.45;43.76;99534.28;5052201;28;20048;-75
2023/03/18 08:36:32;;;;;;;13.52;7.90;;;;;;;13.44;43.45;99528.19;5054990;28;20029;-75
2023/03/18 08:38:58;;;;;;;14.82;8.50;;;;;;;13.40;43.11;99520.59;5054722;28;20023;-75
2023/03/18 08:41:24;;;;;;;11.98;6.78;;;;;;;13.40;43.01;99529.31;5055025;28;20365;-75
2023/03/18 08:43:51;;;;;;;13.25;7.65;;;;;;;13.28;43.31;99522.19;5054865;28;20388;-75
2023/03/18 08:46:17;;;;;;;18.17;10.43;;;;;;;13.32;43.15;99528.94;5054641;28;20472;-75
2023/03/18 08:48:42;;;;;;;13.73;8.35;;;;;;;13.39;43.50;99518.91;5055334;28;20381;-75
2023/03/18 08:51:08;;;;;;;16.52;9.48;;;;;;;13.47;43.28;99537.63;5054638;28;20040;-75
2023/03/18 08:53:34;;;;;;;19.73;10.82;;;;;;;13.36;43.08;99543.50;5054743;28;20028;-75
2023/03/18 08:56:01;;;;;;;14.50;9.65;;;;;;;13.37;43.20;99541.72;5055126;28;20036;-76
2023/03/18 08:58:27;;;;;;;17.65;9.90;;;;;;;13.42;43.12;99552.75;5054626;28;20024;-75
2023/03/18 09:00:54;;;;;;;16.25;9.57;;;;;;;13.44;43.10;99546.50;5054782;28;20021;-75
2023/03/18 09:03:20;;;;;;;15.13;8.80;;;;;;;13.41;42.91;99535.38;5054395;28;20108;-75
2023/03/18 09:05:49;;;;;;;13.10;7.72;;;;;;;13.14;42.68;99519.50;5054635;28;20029;-75
2023/03/18 09:08:14;;;;;;;12.18;8.63;;;;;;;13.24;43.21;99544.25;5054298;28;20051;-75
2023/03/18 09:10:40;;;;;;;15.52;8.98;;;;;;;13.36;43.21;99540.91;5054979;28;20469;-75
2023/03/18 09:13:07;;;;;;;11.73;7.47;;;;;;;13.37;43.32;99545.19;5054575;28;20163;-75
2023/03/18 09:15:32;;;;;;;11.30;8.05;;;;;;;13.38;43.39;99528.56;5054593;28;20472;-75
2023/03/18 09:17:58;;;;;;;14.30;7.85;;;;;;;13.44;43.23;99537.78;5054105;28;20114;-75
2023/03/18 09:20:24;;;;;;;12.43;8.25;;;;;;;13.48;43.31;99529.69;5054099;28;20108;-75
2023/03/18 09:22:50;;;;;;;12.48;6.88;;;;;;;13.25;43.00;99543.28;5053987;28;20442;-75
2023/03/18 09:25:16;;;;;;;11.23;7.32;;;;;;;13.10;43.52;99545.00;5054094;28;20080;-75
2023/03/18 09:27:42;;;;;;;23.98;7.88;;;;;;;12.87;43.53;99524.59;5054242;28;20112;-75
2023/03/18 09:30:08;;;;;;;10.15;7.00;;;;;;;12.87;44.04;99524.59;5054042;28;20025;-75
2023/03/18 09:32:34;;;;;;;13.25;7.32;;;;;;;12.99;43.99;99550.88;5054058;28;20086;-75
2023/03/18 09:34:59;;;;;;;12.80;9.35;;;;;;;12.92;44.00;99544.31;5053987;28;20029;-75
2023/03/18 09:37:25;;;;;;;8.75;7.47;;;;;;;12.84;43.84;99545.69;5053795;28;20025;-75
2023/03/18 09:39:50;;;;;;;10.57;6.68;;;;;;;12.80;43.43;99534.56;5054163;28;20499;-75
2023/03/18 09:42:40;;;;;;;9.82;6.80;;;;;;;12.81;43.80;99546.72;5053784;28;20068;-75
2023/03/18 09:45:45;;;;;;;17.77;8.65;;;;;;;13.07;43.80;99546.97;5053579;28;20025;-75
2023/03/18 09:48:23;;;;;;;13.40;8.98;;;;;;;13.33;43.27;99541.06;5053735;28;20052;-75
2023/03/18 09:51:14;;;;;;;11.57;6.68;;;;;;;13.23;43.00;99514.63;5053889;28;20028;-75
2023/03/18 09:53:51;;;;;;;11.48;6.38;;;;;;;13.04;43.11;99521.84;5053774;28;20047;-75
2023/03/18 09:56:24;;;;;;;13.77;7.03;;;;;;;12.82;43.67;99530.09;5053610;28;20028;-75
2023/03/18 09:59:02;;;;;;;11.63;6.97;;;;;;;12.76;44.04;99524.38;5053979;28;20116;-75
2023/03/18 10:01:29;;;;;;;11.43;7.32;;;;;;;12.76;44.83;99533.03;5053347;28;20025;-75
2023/03/18 10:04:25;;;;;;;9.32;6.90;;;;;;;13.14;44.95;99536.03;5050772;28;20025;-75
2023/03/18 10:07:00;;;;;;;11.15;7.38;;;;;;;13.08;43.74;99533.81;5040399;28;20024;-75
2023/03/18 10:09:41;;;;;;;13.05;8.80;;;;;;;12.84;43.77;99523.00;5043002;28;20024;-75
2023/03/18 10:12:19;;;;;;;12.48;7.38;;;;;;;12.74;43.81;99519.25;5042972;28;20032;-75
2023/03/18 10:14:49;;;;;;;11.88;7.13;;;;;;;13.11;43.82;99543.25;5043182;28;20039;-75
2023/03/18 10:17:24;;;;;;;12.07;8.10;;;;;;;13.15;43.44;99516.00;5041628;28;20056;-75
2023/03/18 10:19:56;;;;;;;14.57;7.60;;;;;;;13.33;43.45;99530.59;5033165;28;20576;-74
2023/03/18 10:22:50;;;;;;;14.18;8.18;;;;;;;13.48;43.72;99532.31;5034498;28;20048;-75
2023/03/18 10:25:24;;;;;;;11.00;6.20;;;;;;;13.41;43.05;99507.44;5030095;28;20473;-75
2023/03/18 10:27:52;;;;;;;11.82;7.47;;;;;;;13.35;43.19;99525.28;5030682;28;20033;-75
2023/03/18 10:30:53;;;;;;;9.70;6.90;;;;;;;13.36;43.41;99519.97;5030189;28;20041;-75
2023/03/18 10:33:22;;;;;;;8.52;6.82;;;;;;;13.42;44.00;99523.97;4932810;29;20135;-75
2023/03/18 10:35:53;;;;;;;13.00;8.43;;;;;;;13.41;43.96;99499.59;4933294;29;20070;-75
2023/03/18 10:38:33;;;;;;;9.60;7.72;;;;;;;13.39;43.87;99506.69;4933085;29;20551;-75
2023/03/18 10:40:59;;;;;;;14.90;7.63;;;;;;;13.48;43.79;99500.03;4933255;29;20120;-75
2023/03/18 10:43:28;;;;;;;10.52;7.65;;;;;;;13.73;43.71;99521.16;4932910;29;20039;-75
2023/03/18 10:46:01;;;;;;;10.80;7.63;;;;;;;13.65;43.10;99506.88;4933022;29;20039;-76
2023/03/18 10:48:31;;;;;;;11.73;7.28;;;;;;;13.51;43.39;99504.25;4932995;29;20063;-76
2023/03/18 10:51:28;;;;;;;15.77;8.90;;;;;;;13.68;43.95;99525.00;4932587;29;20095;-76
2023/03/18 10:54:15;;;;;;;12.52;8.38;;;;;;;13.87;43.77;99528.19;4933140;29;20056;-75
2023/03/18 10:56:41;;;;;;;14.07;7.72;;;;;;;13.90;43.50;99524.50;4932672;29;20040;-75
2023/03/18 10:59:17;;;;;;;11.00;7.32;;;;;;;13.92;43.23;99525.28;4932544;29;20171;-75
2023/03/18 11:01:46;;;;;;;13.65;6.97;;;;;;;13.69;43.14;99516.22;4932843;29;20052;-76
2023/03/18 11:04:15;;;;;;;10.15;6.82;;;;;;;13.66;43.78;99519.03;4932801;29;20071;-75
2023/03/18 11:06:47;;;;;;;10.38;7.22;;;;;;;13.74;43.73;99493.25;4932745;29;20447;-75
2023/03/18 11:09:17;;;;;;;9.50;6.93;;;;;;;14.03;44.14;99514.13;4937347;28;20061;-74
2023/03/18 11:11:45;;;;;;;11.40;7.35;;;;;;;13.97;43.35;99516.19;4971251;28;20045;-75
2023/03/18 11:14:21;;;;;;;11.52;6.93;;;;;;;13.92;42.75;99512.19;4971253;28;20031;-75
2023/03/18 11:16:55;;;;;;;11.43;7.40;;;;;;;13.98;43.49;99512.63;4970871;28;20117;-74
2023/03/18 11:19:31;;;;;;;9.95;6.82;;;;;;;13.80;43.05;99516.41;4970646;28;20058;-75
2023/03/18 11:22:23;;;;;;;12.48;7.30;;;;;;;13.81;43.71;99509.38;4970353;28;20144;-74
2023/03/18 11:25:10;;;;;;;9.50;6.57;;;;;;;13.70;43.51;99510.06;4932492;29;20071;-74
2023/03/18 11:27:47;;;;;;;13.10;8.27;;;;;;;13.78;43.60;99502.59;4932273;29;20039;-74
2023/03/18 11:30:24;;;;;;;11.07;6.93;;;;;;;13.73;43.39;99488.91;4951379;28;20113;-74
2023/03/18 11:33:05;;;;;;;11.52;7.43;;;;;;;13.78;43.72;99488.63;4990532;28;20445;-74